Notice: Undefined index: language in /storage/ssd5/510/10272510/public_html/vam1/vam/index.php on line 25
Brand Clickair VA

 METAR AND TAF INFORMATION
METAR FOR EGBB
ADDS - METARS form results

(0237 UTC 26 September 2020)
Data provider http://aviationweather.gov/metar/data/
 
METAR text: EGBB 260220Z 31010KT 9999 FEW042 07/03 Q1012
Conditions at: EGBB (BIRMINGHAM AIRPO, GB) observed 0220 UTC 26 September 2020
Temperature: 7.0°C (45°F)
Dewpoint: 3.0°C (37°F) [RH = 76%]
Pressure (altimeter): 29.88 inches Hg (1012.0 mb)
Winds: from the NW (310 degrees) at 12 MPH (10 knots; 5.1 m/s)
Visibility: 6 or more miles (10+ km)
Ceiling: at least 12,000 feet AGL
Clouds: few clouds at 4200 feet AGL
Weather: no significant weather observed at this time

METAR text: EGBB 260150Z 30010KT CAVOK 07/04 Q1012
Conditions at: EGBB (BIRMINGHAM AIRPO, GB) observed 0150 UTC 26 September 2020
Temperature: 7.0°C (45°F)
Dewpoint: 4.0°C (39°F) [RH = 81%]
Pressure (altimeter): 29.88 inches Hg (1012.0 mb)
Winds: from the WNW (300 degrees) at 12 MPH (10 knots; 5.1 m/s)
Visibility: 6 or more miles (10+ km)
Ceiling: ceiling and visibility are OK
Clouds: unknown
Weather: no significant weather observed at this time

Forecast for: EGBB (BIRMINGHAM AIRPO, GB)
Text: TAF EGBB 252254Z 2600/2624 32012KT 9999 SCT040
Forecast period: 0000 UTC 26 September 2020 to 0000 UTC 27 September 2020
Forecast type: FROM: standard forecast or significant change
Winds: from the NW (320 degrees) at 14 MPH (12 knots; 6.2 m/s)
Visibility: 6 or more miles (10+ km)
Ceiling: at least 12,000 feet AGL
Clouds: scattered clouds at 4000 feet AGL
Weather: no significant weather forecast for this period
Text: TEMPO 2609/2624 33015G25KT
Forecast period: 0900 UTC 26 September 2020 to 0000 UTC 27 September 2020
Forecast type: TEMPORARY: The following changes expected for less than half the time period
Winds: from the NNW (330 degrees) at 17 MPH (15 knots; 7.7 m/s)
gusting to 29 MPH (25 knots; 12.9 m/s)
Visibility: missing
Ceiling: unknown
Clouds: missing
Weather: no significant weather forecast for this period

 AIRPORT MAP

 RUNWAY INFORMATION
Runway 15 Runway length 8527 ft Runway width 151 ft
Runway elevation 305 ft Runway displaced threshold 1069 ft Runway heading 148
Runway 33 Runway length 8527 ft Runway width 151 ft
Runway elevation 328 ft Runway displaced threshold 987 ft Runway heading 328

 AIRPORT FREQUENCIES
Type APP Name APP Frequency 118.05 MHZ
Type ATIS Name ATIS Frequency 136.02 MHZ
Type GND Name GND Frequency 121.8 MHZ
Type TWR Name TWR Frequency 118.3 MHZ

 AIRPORT NEAR NAVIGATION AIDS
Type NDB Name Birmingham Frequency 406 KHZ



Powered by Virtual Airlines Manager [v2.6.2]